sensor_id;sensor_type;location;lat;lon;timestamp;pressure;altitude;pressure_sealevel;temperature;humidity
57574;BME280;68988;49.000;21.242;2023-04-26T00:01:16;97715.75;;;22.29;40.72
57574;BME280;68988;49.000;21.242;2023-04-26T00:03:42;97724.28;;;22.31;41.12
57574;BME280;68988;49.000;21.242;2023-04-26T00:06:07;97736.56;;;22.32;41.16
57574;BME280;68988;49.000;21.242;2023-04-26T00:08:37;97733.91;;;22.32;41.07
57574;BME280;68988;49.000;21.242;2023-04-26T00:11:02;97726.97;;;22.31;40.98
57574;BME280;68988;49.000;21.242;2023-04-26T00:13:28;97726.69;;;22.33;40.91
57574;BME280;68988;49.000;21.242;2023-04-26T00:15:53;97730.13;;;22.33;40.92
57574;BME280;68988;49.000;21.242;2023-04-26T00:18:18;97724.00;;;22.33;41.03
57574;BME280;68988;49.000;21.242;2023-04-26T00:20:44;97724.00;;;22.33;41.12
57574;BME280;68988;49.000;21.242;2023-04-26T00:23:10;97725.91;;;22.32;40.88
57574;BME280;68988;49.000;21.242;2023-04-26T00:25:36;97722.13;;;22.33;40.96
57574;BME280;68988;49.000;21.242;2023-04-26T00:28:02;97725.06;;;22.32;41.02
57574;BME280;68988;49.000;21.242;2023-04-26T00:30:28;97729.63;;;22.31;41.16
57574;BME280;68988;49.000;21.242;2023-04-26T00:32:53;97726.69;;;22.33;41.09
57574;BME280;68988;49.000;21.242;2023-04-26T00:35:19;97730.13;;;22.33;41.17
57574;BME280;68988;49.000;21.242;2023-04-26T00:37:44;97727.47;;;22.28;40.96
57574;BME280;68988;49.000;21.242;2023-04-26T00:40:11;97729.63;;;22.31;41.12
57574;BME280;68988;49.000;21.242;2023-04-26T00:42:38;97731.22;;;22.32;40.97
57574;BME280;68988;49.000;21.242;2023-04-26T00:45:04;97734.69;;;22.33;40.99
57574;BME280;68988;49.000;21.242;2023-04-26T00:47:30;97737.38;;;22.33;40.91
57574;BME280;68988;49.000;21.242;2023-04-26T00:49:55;97736.03;;;22.35;40.97
57574;BME280;68988;49.000;21.242;2023-04-26T00:52:21;97737.59;;;22.37;41.00
57574;BME280;68988;49.000;21.242;2023-04-26T00:54:48;97740.28;;;22.37;41.04
57574;BME280;68988;49.000;21.242;2023-04-26T00:57:13;97748.28;;;22.37;41.04
57574;BME280;68988;49.000;21.242;2023-04-26T00:59:39;97745.63;;;22.37;40.96
57574;BME280;68988;49.000;21.242;2023-04-26T01:02:05;97749.38;;;22.35;41.06
57574;BME280;68988;49.000;21.242;2023-04-26T01:04:31;97744.03;;;22.35;40.83
57574;BME280;68988;49.000;21.242;2023-04-26T01:06:59;97748.28;;;22.37;40.87
57574;BME280;68988;49.000;21.242;2023-04-26T01:09:24;97744.53;;;22.38;40.70
57574;BME280;68988;49.000;21.242;2023-04-26T01:11:50;97747.22;;;22.38;40.92
57574;BME280;68988;49.000;21.242;2023-04-26T01:14:16;97747.22;;;22.38;41.06
57574;BME280;68988;49.000;21.242;2023-04-26T01:16:42;97753.63;;;22.37;40.87
57574;BME280;68988;49.000;21.242;2023-04-26T01:19:11;97760.56;;;22.38;41.09
57574;BME280;68988;49.000;21.242;2023-04-26T01:21:38;97751.22;;;22.35;40.69
57574;BME280;68988;49.000;21.242;2023-04-26T01:24:04;97756.00;;;22.38;40.89
57574;BME280;68988;49.000;21.242;2023-04-26T01:26:30;97758.41;;;22.40;40.78
57574;BME280;68988;49.000;21.242;2023-04-26T01:28:57;97764.84;;;22.39;40.96
57574;BME280;68988;49.000;21.242;2023-04-26T01:31:23;97760.56;;;22.38;40.98
57574;BME280;68988;49.000;21.242;2023-04-26T01:33:48;97764.03;;;22.38;40.76
57574;BME280;68988;49.000;21.242;2023-04-26T01:36:13;97762.47;;;22.37;40.94
57574;BME280;68988;49.000;21.242;2023-04-26T01:38:39;97770.19;;;22.39;41.01
57574;BME280;68988;49.000;21.242;2023-04-26T01:41:04;97770.97;;;22.39;40.69
57574;BME280;68988;49.000;21.242;2023-04-26T01:43:30;97769.09;;;22.40;40.85
57574;BME280;68988;49.000;21.242;2023-04-26T01:45:55;97780.59;;;22.40;40.73
57574;BME280;68988;49.000;21.242;2023-04-26T01:48:21;97779.78;;;22.40;40.85
57574;BME280;68988;49.000;21.242;2023-04-26T01:50:46;97788.63;;;22.40;40.79
57574;BME280;68988;49.000;21.242;2023-04-26T01:53:11;97789.69;;;22.39;40.95
57574;BME280;68988;49.000;21.242;2023-04-26T01:55:37;97790.47;;;22.40;40.93
57574;BME280;68988;49.000;21.242;2023-04-26T01:58:02;97788.88;;;22.39;40.85
57574;BME280;68988;49.000;21.242;2023-04-26T02:00:28;97792.06;;;22.41;40.73
57574;BME280;68988;49.000;21.242;2023-04-26T02:02:54;97786.72;;;22.41;40.88
57574;BME280;68988;49.000;21.242;2023-04-26T02:05:20;97781.38;;;22.41;40.79
57574;BME280;68988;49.000;21.242;2023-04-26T02:07:46;97785.13;;;22.40;40.99
57574;BME280;68988;49.000;21.242;2023-04-26T02:10:11;97783.00;;;22.42;40.80
57574;BME280;68988;49.000;21.242;2023-04-26T02:12:37;97791.00;;;22.42;40.70
57574;BME280;68988;49.000;21.242;2023-04-26T02:15:03;97788.34;;;22.42;40.80
57574;BME280;68988;49.000;21.242;2023-04-26T02:17:29;97782.19;;;22.41;40.68
57574;BME280;68988;49.000;21.242;2023-04-26T02:19:54;97785.66;;;22.42;40.84
57574;BME280;68988;49.000;21.242;2023-04-26T02:22:21;97784.06;;;22.41;40.81
57574;BME280;68988;49.000;21.242;2023-04-26T02:24:49;97799.03;;;22.42;40.86
57574;BME280;68988;49.000;21.242;2023-04-26T02:27:15;97791.00;;;22.42;40.77
57574;BME280;68988;49.000;21.242;2023-04-26T02:29:41;97788.34;;;22.42;40.79
57574;BME280;68988;49.000;21.242;2023-04-26T02:32:06;97786.44;;;22.42;40.74
57574;BME280;68988;49.000;21.242;2023-04-26T02:34:32;97785.94;;;22.40;40.77
57574;BME280;68988;49.000;21.242;2023-04-26T02:36:57;97792.84;;;22.41;40.90
57574;BME280;68988;49.000;21.242;2023-04-26T02:39:23;97800.59;;;22.43;40.63
57574;BME280;68988;49.000;21.242;2023-04-26T02:41:48;97795.25;;;22.43;40.65
57574;BME280;68988;49.000;21.242;2023-04-26T02:44:14;97792.56;;;22.43;40.84
57574;BME280;68988;49.000;21.242;2023-04-26T02:46:39;97785.13;;;22.40;40.59
57574;BME280;68988;49.000;21.242;2023-04-26T02:49:04;97787.50;;;22.41;40.81
57574;BME280;68988;49.000;21.242;2023-04-26T02:51:30;97795.25;;;22.43;40.79
57574;BME280;68988;49.000;21.242;2023-04-26T02:53:57;97792.56;;;22.43;40.85
57574;BME280;68988;49.000;21.242;2023-04-26T02:56:23;97796.84;;;22.44;40.66
57574;BME280;68988;49.000;21.242;2023-04-26T02:58:48;97795.25;;;22.43;40.74
57574;BME280;68988;49.000;21.242;2023-04-26T03:01:13;97806.47;;;22.45;40.70
57574;BME280;68988;49.000;21.242;2023-04-26T03:03:39;97803.00;;;22.44;40.58
57574;BME280;68988;49.000;21.242;2023-04-26T03:06:05;97800.59;;;22.43;40.73
57574;BME280;68988;49.000;21.242;2023-04-26T03:08:30;97817.44;;;22.43;40.53
57574;BME280;68988;49.000;21.242;2023-04-26T03:10:56;97817.44;;;22.43;40.69
57574;BME280;68988;49.000;21.242;2023-04-26T03:13:22;97823.56;;;22.44;40.72
57574;BME280;68988;49.000;21.242;2023-04-26T03:15:48;97816.63;;;22.43;40.76
57574;BME280;68988;49.000;21.242;2023-04-26T03:18:14;97828.91;;;22.44;40.45
57574;BME280;68988;49.000;21.242;2023-04-26T03:20:40;97823.56;;;22.44;40.66
57574;BME280;68988;49.000;21.242;2023-04-26T03:23:06;97827.31;;;22.43;40.74
57574;BME280;68988;49.000;21.242;2023-04-26T03:25:32;97827.84;;;22.45;40.59
57574;BME280;68988;49.000;21.242;2023-04-26T03:27:58;97835.88;;;22.45;40.54
57574;BME280;68988;49.000;21.242;2023-04-26T03:30:23;97836.94;;;22.44;40.72
57574;BME280;68988;49.000;21.242;2023-04-26T03:32:49;97843.06;;;22.44;40.51
57574;BME280;68988;49.000;21.242;2023-04-26T03:35:14;97841.22;;;22.45;40.70
57574;BME280;68988;49.000;21.242;2023-04-26T03:37:40;97842.78;;;22.46;40.57
57574;BME280;68988;49.000;21.242;2023-04-26T03:40:08;97848.41;;;22.44;40.47
57574;BME280;68988;49.000;21.242;2023-04-26T03:42:35;97850.84;;;22.41;40.52
57574;BME280;68988;49.000;21.242;2023-04-26T03:45:00;97857.22;;;22.45;40.70
57574;BME280;68988;49.000;21.242;2023-04-26T03:47:28;97862.56;;;22.45;40.59
57574;BME280;68988;49.000;21.242;2023-04-26T03:49:53;97859.91;;;22.45;40.81
57574;BME280;68988;49.000;21.242;2023-04-26T03:52:19;97867.91;;;22.45;40.58
57574;BME280;68988;49.000;21.242;2023-04-26T03:54:44;97868.72;;;22.45;40.60
57574;BME280;68988;49.000;21.242;2023-04-26T03:57:10;97867.91;;;22.45;40.63
57574;BME280;68988;49.000;21.242;2023-04-26T03:59:35;97874.84;;;22.46;40.51
57574;BME280;68988;49.000;21.242;2023-04-26T04:02:01;97874.06;;;22.45;40.56
57574;BME280;68988;49.000;21.242;2023-04-26T04:04:26;97871.09;;;22.47;40.52
57574;BME280;68988;49.000;21.242;2023-04-26T04:06:51;97883.41;;;22.48;40.55
57574;BME280;68988;49.000;21.242;2023-04-26T04:09:17;97881.00;;;22.46;40.50
57574;BME280;68988;49.000;21.242;2023-04-26T04:11:42;97881.78;;;22.47;40.37
57574;BME280;68988;49.000;21.242;2023-04-26T04:14:08;97885.25;;;22.47;40.46
57574;BME280;68988;49.000;21.242;2023-04-26T04:16:33;97884.69;;;22.50;40.54
57574;BME280;68988;49.000;21.242;2023-04-26T04:18:58;97886.59;;;22.50;40.43
57574;BME280;68988;49.000;21.242;2023-04-26T04:21:25;97889.25;;;22.50;40.49
57574;BME280;68988;49.000;21.242;2023-04-26T04:23:51;97899.94;;;22.50;40.37
57574;BME280;68988;49.000;21.242;2023-04-26T04:26:17;97904.22;;;22.51;40.40
57574;BME280;68988;49.000;21.242;2023-04-26T04:28:43;97917.59;;;22.51;40.41
57574;BME280;68988;49.000;21.242;2023-04-26T04:31:11;97913.25;;;22.55;40.39
57574;BME280;68988;49.000;21.242;2023-04-26T04:33:37;97921.28;;;22.55;40.66
57574;BME280;68988;49.000;21.242;2023-04-26T04:36:03;97922.88;;;22.56;40.31
57574;BME280;68988;49.000;21.242;2023-04-26T04:38:29;97925.28;;;22.58;40.42
57574;BME280;68988;49.000;21.242;2023-04-26T04:40:55;97928.47;;;22.60;40.51
57574;BME280;68988;49.000;21.242;2023-04-26T04:43:21;97933.03;;;22.59;40.59
57574;BME280;68988;49.000;21.242;2023-04-26T04:45:47;97940.22;;;22.64;40.40
57574;BME280;68988;49.000;21.242;2023-04-26T04:48:14;97934.88;;;22.64;40.31
57574;BME280;68988;49.000;21.242;2023-04-26T04:50:39;97942.34;;;22.67;40.29
57574;BME280;68988;49.000;21.242;2023-04-26T04:53:06;97943.13;;;22.67;40.52
57574;BME280;68988;49.000;21.242;2023-04-26T04:55:33;97942.84;;;22.69;40.37
57574;BME280;68988;49.000;21.242;2023-04-26T04:57:58;97944.47;;;22.70;40.59
57574;BME280;68988;49.000;21.242;2023-04-26T05:00:24;97938.34;;;22.69;40.53
57574;BME280;68988;49.000;21.242;2023-04-26T05:02:49;97949.25;;;22.73;40.37
57574;BME280;68988;49.000;21.242;2023-04-26T05:05:15;97955.66;;;22.72;40.53
57574;BME280;68988;49.000;21.242;2023-04-26T05:07:40;97958.34;;;22.72;40.34
57574;BME280;68988;49.000;21.242;2023-04-26T05:10:06;97960.72;;;22.79;40.33
57574;BME280;68988;49.000;21.242;2023-04-26T05:12:31;97965.53;;;22.82;40.44
57574;BME280;68988;49.000;21.242;2023-04-26T05:14:57;97968.41;;;20.91;36.28
57574;BME280;68988;49.000;21.242;2023-04-26T05:17:23;97973.28;;;21.72;39.32
57574;BME280;68988;49.000;21.242;2023-04-26T05:19:48;97979.13;;;22.10;39.25
57574;BME280;68988;49.000;21.242;2023-04-26T05:22:13;97984.41;;;22.25;39.00
57574;BME280;68988;49.000;21.242;2023-04-26T05:24:44;97984.44;;;22.35;39.17
57574;BME280;68988;49.000;21.242;2023-04-26T05:27:10;97997.47;;;22.47;39.40
57574;BME280;68988;49.000;21.242;2023-04-26T05:29:36;97999.31;;;22.57;39.15
57574;BME280;68988;49.000;21.242;2023-04-26T05:32:01;97997.13;;;22.64;39.11
57574;BME280;68988;49.000;21.242;2023-04-26T05:34:27;98000.06;;;22.68;39.21
57574;BME280;68988;49.000;21.242;2023-04-26T05:36:52;97995.75;;;22.72;39.46
57574;BME280;68988;49.000;21.242;2023-04-26T05:39:17;98007.78;;;22.75;39.29
57574;BME280;68988;49.000;21.242;2023-04-26T05:41:44;98005.13;;;22.75;39.15
57574;BME280;68988;49.000;21.242;2023-04-26T05:44:10;98010.44;;;22.80;39.30
57574;BME280;68988;49.000;21.242;2023-04-26T05:46:35;98006.66;;;22.86;39.20
57574;BME280;68988;49.000;21.242;2023-04-26T05:49:01;98010.66;;;22.88;39.06
57574;BME280;68988;49.000;21.242;2023-04-26T05:51:26;98022.16;;;22.89;38.73
57574;BME280;68988;49.000;21.242;2023-04-26T05:53:52;98020.22;;;23.00;38.75
57574;BME280;68988;49.000;21.242;2023-04-26T05:56:17;98016.19;;;23.13;39.40
57574;BME280;68988;49.000;21.242;2023-04-26T05:58:43;98020.72;;;23.12;39.22
57574;BME280;68988;49.000;21.242;2023-04-26T06:01:08;98026.63;;;23.09;38.90
57574;BME280;68988;49.000;21.242;2023-04-26T06:03:33;98025.81;;;23.09;39.08
57574;BME280;68988;49.000;21.242;2023-04-26T06:05:59;98024.44;;;23.16;39.24
57574;BME280;68988;49.000;21.242;2023-04-26T06:08:24;98036.44;;;23.24;39.48
57574;BME280;68988;49.000;21.242;2023-04-26T06:10:52;98027.34;;;23.20;39.30
57574;BME280;68988;49.000;21.242;2023-04-26T06:13:17;98030.56;;;23.22;39.60
57574;BME280;68988;49.000;21.242;2023-04-26T06:15:43;98042.31;;;23.26;39.25
57574;BME280;68988;49.000;21.242;2023-04-26T06:18:08;98040.16;;;23.28;39.52
57574;BME280;68988;49.000;21.242;2023-04-26T06:20:34;98034.25;;;23.31;39.40
57574;BME280;68988;49.000;21.242;2023-04-26T06:23:00;98043.34;;;23.30;39.26
57574;BME280;68988;49.000;21.242;2023-04-26T06:25:25;98039.72;;;23.16;37.21
57574;BME280;68988;49.000;21.242;2023-04-26T06:27:50;98036.44;;;23.24;36.92
57574;BME280;68988;49.000;21.242;2023-04-26T06:30:16;98042.84;;;23.28;37.26
57574;BME280;68988;49.000;21.242;2023-04-26T06:32:41;98056.22;;;23.28;37.58
57574;BME280;68988;49.000;21.242;2023-04-26T06:35:07;98051.09;;;23.32;37.75
57574;BME280;68988;49.000;21.242;2023-04-26T06:37:34;98044.13;;;23.36;37.90
57574;BME280;68988;49.000;21.242;2023-04-26T06:39:59;98046.50;;;23.42;38.02
57574;BME280;68988;49.000;21.242;2023-04-26T06:42:26;98042.56;;;23.30;38.24
57574;BME280;68988;49.000;21.242;2023-04-26T06:44:51;98047.94;;;23.24;36.46
57574;BME280;68988;49.000;21.242;2023-04-26T06:47:16;98046.06;;;23.25;36.72
57574;BME280;68988;49.000;21.242;2023-04-26T06:49:42;98056.22;;;23.28;35.94
57574;BME280;68988;49.000;21.242;2023-04-26T06:52:07;98053.56;;;23.23;35.37
57574;BME280;68988;49.000;21.242;2023-04-26T06:54:33;98049.03;;;23.23;34.42
57574;BME280;68988;49.000;21.242;2023-04-26T06:56:58;98047.19;;;23.19;34.55
57574;BME280;68988;49.000;21.242;2023-04-26T06:59:24;98053.84;;;23.21;34.59
57574;BME280;68988;49.000;21.242;2023-04-26T07:01:50;98052.53;;;23.19;33.89
57574;BME280;68988;49.000;21.242;2023-04-26T07:04:15;98058.41;;;23.21;33.47
57574;BME280;68988;49.000;21.242;2023-04-26T07:06:42;98061.63;;;23.18;33.80
57574;BME280;68988;49.000;21.242;2023-04-26T07:09:08;98058.16;;;23.17;33.27
57574;BME280;68988;49.000;21.242;2023-04-26T07:11:34;98057.09;;;23.13;33.35
57574;BME280;68988;49.000;21.242;2023-04-26T07:13:59;98058.97;;;23.13;33.66
57574;BME280;68988;49.000;21.242;2023-04-26T07:16:26;98064.81;;;23.20;33.25
57574;BME280;68988;49.000;21.242;2023-04-26T07:18:51;98059.47;;;23.20;33.56
57574;BME280;68988;49.000;21.242;2023-04-26T07:21:17;98057.34;;;23.17;32.87
57574;BME280;68988;49.000;21.242;2023-04-26T07:23:42;98067.47;;;23.25;33.10
57574;BME280;68988;49.000;21.242;2023-04-26T07:26:11;98060.50;;;23.24;33.69
57574;BME280;68988;49.000;21.242;2023-04-26T07:28:37;98065.88;;;23.24;33.46
57574;BME280;68988;49.000;21.242;2023-04-26T07:31:03;98074.41;;;23.31;33.96
57574;BME280;68988;49.000;21.242;2023-04-26T07:33:28;98062.03;;;23.35;33.95
57574;BME280;68988;49.000;21.242;2023-04-26T07:35:55;98073.84;;;23.34;34.38
57574;BME280;68988;49.000;21.242;2023-04-26T07:38:21;98070.84;;;23.41;34.21
57574;BME280;68988;49.000;21.242;2023-04-26T07:40:46;98071.94;;;23.35;34.65
57574;BME280;68988;49.000;21.242;2023-04-26T07:43:12;98069.00;;;23.36;34.60
57574;BME280;68988;49.000;21.242;2023-04-26T07:45:39;98071.69;;;23.36;34.16
57574;BME280;68988;49.000;21.242;2023-04-26T07:48:05;98081.31;;;23.37;34.13
57574;BME280;68988;49.000;21.242;2023-04-26T07:50:30;98089.63;;;23.31;33.18
57574;BME280;68988;49.000;21.242;2023-04-26T07:52:56;98085.94;;;23.27;32.70
57574;BME280;68988;49.000;21.242;2023-04-26T07:55:21;98082.47;;;23.21;31.79
57574;BME280;68988;49.000;21.242;2023-04-26T07:57:47;98081.41;;;23.17;31.67
57574;BME280;68988;49.000;21.242;2023-04-26T08:00:13;98084.63;;;23.14;31.38
57574;BME280;68988;49.000;21.242;2023-04-26T08:02:40;98082.22;;;23.07;30.44
57574;BME280;68988;49.000;21.242;2023-04-26T08:05:05;98087.34;;;23.03;30.08
57574;BME280;68988;49.000;21.242;2023-04-26T08:07:31;98087.84;;;23.05;30.04
57574;BME280;68988;49.000;21.242;2023-04-26T08:09:56;98093.78;;;22.97;29.29
57574;BME280;68988;49.000;21.242;2023-04-26T08:12:22;98089.78;;;22.95;30.34
57574;BME280;68988;49.000;21.242;2023-04-26T08:14:47;98092.72;;;22.93;28.91
57574;BME280;68988;49.000;21.242;2023-04-26T08:17:13;98092.47;;;22.89;28.67
57574;BME280;68988;49.000;21.242;2023-04-26T08:19:38;98085.28;;;22.85;27.72
57574;BME280;68988;49.000;21.242;2023-04-26T08:22:03;98090.34;;;22.86;27.92
57574;BME280;68988;49.000;21.242;2023-04-26T08:24:30;98099.69;;;22.84;28.02
57574;BME280;68988;49.000;21.242;2023-04-26T08:26:55;98102.38;;;22.84;28.15
57574;BME280;68988;49.000;21.242;2023-04-26T08:29:22;98107.47;;;22.80;28.24
57574;BME280;68988;49.000;21.242;2023-04-26T08:31:48;98098.09;;;22.83;28.03
57574;BME280;68988;49.000;21.242;2023-04-26T08:34:13;98103.44;;;22.83;28.46
57574;BME280;68988;49.000;21.242;2023-04-26T08:36:39;98110.63;;;22.87;29.03
57574;BME280;68988;49.000;21.242;2023-04-26T08:39:05;98104.47;;;22.97;29.27
57574;BME280;68988;49.000;21.242;2023-04-26T08:41:35;98110.06;;;23.01;29.39
57574;BME280;68988;49.000;21.242;2023-04-26T08:44:03;98106.03;;;23.19;28.87
57574;BME280;68988;49.000;21.242;2023-04-26T08:46:33;98113.69;;;23.31;28.88
57574;BME280;68988;49.000;21.242;2023-04-26T08:51:52;98114.53;;;23.26;29.56
57574;BME280;68988;49.000;21.242;2023-04-26T08:54:19;98120.69;;;23.27;29.98
57574;BME280;68988;49.000;21.242;2023-04-26T08:56:45;98118.81;;;23.27;30.12
57574;BME280;68988;49.000;21.242;2023-04-26T08:59:11;98116.09;;;23.32;29.97
57574;BME280;68988;49.000;21.242;2023-04-26T09:01:42;98122.25;;;23.38;30.25
57574;BME280;68988;49.000;21.242;2023-04-26T09:04:08;98121.97;;;23.39;30.32
57574;BME280;68988;49.000;21.242;2023-04-26T09:06:34;98125.69;;;23.38;30.25
57574;BME280;68988;49.000;21.242;2023-04-26T09:09:02;98122.47;;;23.41;30.58
57574;BME280;68988;49.000;21.242;2023-04-26T09:11:29;98117.13;;;23.41;30.47
57574;BME280;68988;49.000;21.242;2023-04-26T09:13:55;98118.72;;;23.42;30.64
57574;BME280;68988;49.000;21.242;2023-04-26T09:16:33;98127.00;;;23.46;30.57
57574;BME280;68988;49.000;21.242;2023-04-26T09:18:59;98139.63;;;23.40;30.75
57574;BME280;68988;49.000;21.242;2023-04-26T09:21:25;98136.69;;;23.42;30.74
57574;BME280;68988;49.000;21.242;2023-04-26T09:24:00;98140.13;;;23.42;31.01
57574;BME280;68988;49.000;21.242;2023-04-26T09:26:30;98140.41;;;23.41;31.00
57574;BME280;68988;49.000;21.242;2023-04-26T09:34:06;98138.00;;;23.39;31.32
57574;BME280;68988;49.000;21.242;2023-04-26T09:36:45;98143.88;;;23.47;31.45
57574;BME280;68988;49.000;21.242;2023-04-26T09:39:11;98136.91;;;23.46;31.33
57574;BME280;68988;49.000;21.242;2023-04-26T09:41:43;98137.97;;;23.50;31.49
57574;BME280;68988;49.000;21.242;2023-04-26T09:44:22;98137.94;;;23.55;31.52
57574;BME280;68988;49.000;21.242;2023-04-26T09:46:58;98136.59;;;23.52;31.72
57574;BME280;68988;49.000;21.242;2023-04-26T09:49:26;98141.44;;;23.50;32.11
57574;BME280;68988;49.000;21.242;2023-04-26T09:52:18;98143.25;;;23.60;31.82
57574;BME280;68988;49.000;21.242;2023-04-26T09:54:53;98136.31;;;23.59;32.04
57574;BME280;68988;49.000;21.242;2023-04-26T09:57:20;98140.63;;;23.55;31.98
57574;BME280;68988;49.000;21.242;2023-04-26T09:59:47;98137.66;;;23.56;32.05
57574;BME280;68988;49.000;21.242;2023-04-26T10:02:19;98136.31;;;23.59;32.20
57574;BME280;68988;49.000;21.242;2023-04-26T10:04:46;98135.22;;;23.60;32.38
57574;BME280;68988;49.000;21.242;2023-04-26T10:07:12;98131.47;;;23.61;32.25
57574;BME280;68988;49.000;21.242;2023-04-26T10:09:39;98123.16;;;23.63;32.47
57574;BME280;68988;49.000;21.242;2023-04-26T10:12:05;98137.09;;;23.59;32.38
57574;BME280;68988;49.000;21.242;2023-04-26T10:14:31;98135.75;;;23.62;32.60
57574;BME280;68988;49.000;21.242;2023-04-26T10:16:58;98141.13;;;23.62;32.73
57574;BME280;68988;49.000;21.242;2023-04-26T10:19:24;98138.94;;;23.64;32.70
57574;BME280;68988;49.000;21.242;2023-04-26T10:21:52;98144.53;;;23.68;32.90
57574;BME280;68988;49.000;21.242;2023-04-26T10:24:19;98130.38;;;23.67;32.76
57574;BME280;68988;49.000;21.242;2023-04-26T10:26:52;98136.22;;;23.69;32.70
57574;BME280;68988;49.000;21.242;2023-04-26T10:29:21;98141.59;;;23.69;32.82
57574;BME280;68988;49.000;21.242;2023-04-26T10:34:35;98148.56;;;23.70;32.87
57574;BME280;68988;49.000;21.242;2023-04-26T10:37:09;98142.13;;;23.71;32.80
57574;BME280;68988;49.000;21.242;2023-04-26T10:39:35;98149.34;;;23.71;32.95
57574;BME280;68988;49.000;21.242;2023-04-26T10:42:26;98148.50;;;23.75;33.21
57574;BME280;68988;49.000;21.242;2023-04-26T10:44:58;98157.09;;;23.72;33.14
57574;BME280;68988;49.000;21.242;2023-04-26T10:47:33;98163.50;;;23.76;33.16
57574;BME280;68988;49.000;21.242;2023-04-26T10:50:08;98159.75;;;23.77;33.27
57574;BME280;68988;49.000;21.242;2023-04-26T10:52:38;98149.06;;;23.77;33.42
57574;BME280;68988;49.000;21.242;2023-04-26T10:55:46;98144.44;;;23.83;33.46
57574;BME280;68988;49.000;21.242;2023-04-26T10:58:31;98150.38;;;23.85;33.32
57574;BME280;68988;49.000;21.242;2023-04-26T11:01:07;98135.63;;;23.83;33.32
57574;BME280;68988;49.000;21.242;2023-04-26T11:03:34;98123.06;;;23.78;33.34
57574;BME280;68988;49.000;21.242;2023-04-26T11:05:59;98134.00;;;23.82;33.42
57574;BME280;68988;49.000;21.242;2023-04-26T11:08:26;98126.78;;;23.87;33.45
57574;BME280;68988;49.000;21.242;2023-04-26T11:11:12;98142.56;;;23.89;33.41
57574;BME280;68988;49.000;21.242;2023-04-26T11:13:41;98148.22;;;23.87;33.34
57574;BME280;68988;49.000;21.242;2023-04-26T11:18:34;98151.16;;;23.86;33.33
57574;BME280;68988;49.000;21.242;2023-04-26T11:21:00;98148.22;;;23.87;33.40
57574;BME280;68988;49.000;21.242;2023-04-26T11:23:29;98147.13;;;23.88;33.41
57574;BME280;68988;49.000;21.242;2023-04-26T11:25:58;98153.25;;;23.94;33.47
57574;BME280;68988;49.000;21.242;2023-04-26T11:28:26;98168.28;;;23.90;33.52
57574;BME280;68988;49.000;21.242;2023-04-26T11:30:52;98163.16;;;23.93;33.43
57574;BME280;68988;49.000;21.242;2023-04-26T11:33:19;98164.50;;;23.96;33.36
57574;BME280;68988;49.000;21.242;2023-04-26T11:35:51;98161.00;;;23.95;33.38
57574;BME280;68988;49.000;21.242;2023-04-26T11:38:17;98172.53;;;23.96;33.48
57574;BME280;68988;49.000;21.242;2023-04-26T11:40:43;98177.34;;;23.94;33.29
57574;BME280;68988;49.000;21.242;2023-04-26T11:43:08;98172.25;;;23.92;33.55
57574;BME280;68988;49.000;21.242;2023-04-26T11:45:35;98182.75;;;23.89;33.68
57574;BME280;68988;49.000;21.242;2023-04-26T11:48:03;98165.78;;;23.99;33.51
57574;BME280;68988;49.000;21.242;2023-04-26T11:50:34;98177.31;;;23.99;33.64
57574;BME280;68988;49.000;21.242;2023-04-26T11:53:03;98183.47;;;24.00;33.41
57574;BME280;68988;49.000;21.242;2023-04-26T11:55:29;98173.00;;;24.03;33.25
57574;BME280;68988;49.000;21.242;2023-04-26T11:58:18;98179.69;;;24.06;33.46
57574;BME280;68988;49.000;21.242;2023-04-26T12:01:00;98190.69;;;24.04;33.19
57574;BME280;68988;49.000;21.242;2023-04-26T12:03:33;98184.53;;;24.04;33.33
57574;BME280;68988;49.000;21.242;2023-04-26T12:06:04;98181.03;;;24.03;33.30
57574;BME280;68988;49.000;21.242;2023-04-26T12:08:31;98185.09;;;24.01;33.12
57574;BME280;68988;49.000;21.242;2023-04-26T12:11:01;98171.97;;;23.99;33.24
57574;BME280;68988;49.000;21.242;2023-04-26T12:13:28;98174.38;;;24.01;33.15
57574;BME280;68988;49.000;21.242;2023-04-26T12:15:53;98160.44;;;23.99;33.39
57574;BME280;68988;49.000;21.242;2023-04-26T12:18:19;98171.97;;;23.99;33.38
57574;BME280;68988;49.000;21.242;2023-04-26T12:20:45;98170.03;;;24.05;33.19
57574;BME280;68988;49.000;21.242;2023-04-26T12:23:16;98168.72;;;24.02;33.47
57574;BME280;68988;49.000;21.242;2023-04-26T12:28:19;98172.72;;;24.05;33.29
57574;BME280;68988;49.000;21.242;2023-04-26T12:30:44;98166.78;;;24.08;33.31
57574;BME280;68988;49.000;21.242;2023-04-26T12:33:10;98169.47;;;24.08;33.48
57574;BME280;68988;49.000;21.242;2023-04-26T12:35:35;98166.25;;;24.11;33.22
57574;BME280;68988;49.000;21.242;2023-04-26T12:38:01;98170.25;;;24.13;33.27
57574;BME280;68988;49.000;21.242;2023-04-26T12:40:27;98176.22;;;24.05;33.46
57574;BME280;68988;49.000;21.242;2023-04-26T12:42:53;98173.00;;;24.03;33.61
57574;BME280;68988;49.000;21.242;2023-04-26T12:45:20;98165.44;;;24.10;33.37
57574;BME280;68988;49.000;21.242;2023-04-26T12:47:47;98170.84;;;24.05;33.44
57574;BME280;68988;49.000;21.242;2023-04-26T12:50:13;98170.56;;;24.07;33.47
57574;BME280;68988;49.000;21.242;2023-04-26T12:52:40;98172.97;;;24.08;33.57
57574;BME280;68988;49.000;21.242;2023-04-26T12:55:07;98166.53;;;24.09;33.52
57574;BME280;68988;49.000;21.242;2023-04-26T12:57:33;98178.88;;;24.05;33.55
57574;BME280;68988;49.000;21.242;2023-04-26T12:59:59;98170.59;;;24.02;33.38
57574;BME280;68988;49.000;21.242;2023-04-26T13:02:25;98177.78;;;24.06;33.48
57574;BME280;68988;49.000;21.242;2023-04-26T13:04:51;98176.44;;;24.09;33.72